sensor_id;sensor_type;location;lat;lon;timestamp;P1;durP1;ratioP1;P2;durP2;ratioP2
16478;SDS011;8350;52.316;10.530;2023-03-14T00:01:09;1.83;;;1.50;;
16478;SDS011;8350;52.316;10.530;2023-03-14T00:03:37;1.85;;;1.35;;
16478;SDS011;8350;52.316;10.530;2023-03-14T00:06:04;2.83;;;1.25;;
16478;SDS011;8350;52.316;10.530;2023-03-14T00:08:32;2.95;;;1.45;;
16478;SDS011;8350;52.316;10.530;2023-03-14T00:11:03;3.38;;;1.52;;
16478;SDS011;8350;52.316;10.530;2023-03-14T00:13:30;2.28;;;1.15;;
16478;SDS011;8350;52.316;10.530;2023-03-14T00:16:02;2.03;;;1.58;;
16478;SDS011;8350;52.316;10.530;2023-03-14T00:18:30;2.80;;;1.45;;
16478;SDS011;8350;52.316;10.530;2023-03-14T00:20:59;3.50;;;1.50;;
16478;SDS011;8350;52.316;10.530;2023-03-14T00:23:28;2.83;;;1.60;;
16478;SDS011;8350;52.316;10.530;2023-03-14T00:25:57;4.15;;;1.90;;
16478;SDS011;8350;52.316;10.530;2023-03-14T00:28:25;2.25;;;1.75;;
16478;SDS011;8350;52.316;10.530;2023-03-14T00:30:58;2.53;;;1.60;;
16478;SDS011;8350;52.316;10.530;2023-03-14T00:33:29;1.98;;;1.42;;
16478;SDS011;8350;52.316;10.530;2023-03-14T00:35:56;2.65;;;1.23;;
16478;SDS011;8350;52.316;10.530;2023-03-14T00:38:24;2.33;;;1.77;;
16478;SDS011;8350;52.316;10.530;2023-03-14T00:40:52;2.67;;;1.40;;
16478;SDS011;8350;52.316;10.530;2023-03-14T00:43:19;3.53;;;1.98;;
16478;SDS011;8350;52.316;10.530;2023-03-14T00:45:47;1.75;;;1.30;;
16478;SDS011;8350;52.316;10.530;2023-03-14T00:48:14;1.42;;;1.13;;
16478;SDS011;8350;52.316;10.530;2023-03-14T00:50:42;2.40;;;1.48;;
16478;SDS011;8350;52.316;10.530;2023-03-14T00:53:09;1.85;;;1.20;;
16478;SDS011;8350;52.316;10.530;2023-03-14T00:55:36;1.60;;;1.50;;
16478;SDS011;8350;52.316;10.530;2023-03-14T00:58:03;1.17;;;1.08;;
16478;SDS011;8350;52.316;10.530;2023-03-14T01:00:31;2.63;;;1.35;;
16478;SDS011;8350;52.316;10.530;2023-03-14T01:02:58;1.83;;;0.93;;
16478;SDS011;8350;52.316;10.530;2023-03-14T01:05:25;1.48;;;1.23;;
16478;SDS011;8350;52.316;10.530;2023-03-14T01:07:54;1.92;;;1.55;;
16478;SDS011;8350;52.316;10.530;2023-03-14T01:10:21;2.15;;;1.40;;
16478;SDS011;8350;52.316;10.530;2023-03-14T01:12:48;2.45;;;1.10;;
16478;SDS011;8350;52.316;10.530;2023-03-14T01:15:15;1.77;;;0.98;;
16478;SDS011;8350;52.316;10.530;2023-03-14T01:17:42;2.60;;;1.02;;
16478;SDS011;8350;52.316;10.530;2023-03-14T01:20:10;1.95;;;1.42;;
16478;SDS011;8350;52.316;10.530;2023-03-14T01:22:40;1.55;;;1.00;;
16478;SDS011;8350;52.316;10.530;2023-03-14T01:25:09;2.00;;;1.17;;
16478;SDS011;8350;52.316;10.530;2023-03-14T01:27:37;2.13;;;1.30;;
16478;SDS011;8350;52.316;10.530;2023-03-14T01:30:05;1.85;;;1.10;;
16478;SDS011;8350;52.316;10.530;2023-03-14T01:32:38;3.08;;;1.35;;
16478;SDS011;8350;52.316;10.530;2023-03-14T01:35:05;1.05;;;0.95;;
16478;SDS011;8350;52.316;10.530;2023-03-14T01:37:33;2.15;;;1.10;;
16478;SDS011;8350;52.316;10.530;2023-03-14T01:40:00;4.22;;;1.33;;
16478;SDS011;8350;52.316;10.530;2023-03-14T01:42:29;1.35;;;0.90;;
16478;SDS011;8350;52.316;10.530;2023-03-14T01:44:57;2.42;;;1.10;;
16478;SDS011;8350;52.316;10.530;2023-03-14T01:47:25;2.78;;;1.20;;
16478;SDS011;8350;52.316;10.530;2023-03-14T01:49:53;1.33;;;1.23;;
16478;SDS011;8350;52.316;10.530;2023-03-14T01:52:23;1.55;;;1.13;;
16478;SDS011;8350;52.316;10.530;2023-03-14T01:54:54;1.13;;;1.02;;
16478;SDS011;8350;52.316;10.530;2023-03-14T01:57:25;2.03;;;1.35;;
16478;SDS011;8350;52.316;10.530;2023-03-14T01:59:58;3.28;;;1.15;;
16478;SDS011;8350;52.316;10.530;2023-03-14T02:02:33;2.47;;;1.10;;
16478;SDS011;8350;52.316;10.530;2023-03-14T02:05:01;2.88;;;1.10;;
16478;SDS011;8350;52.316;10.530;2023-03-14T02:07:30;2.30;;;0.90;;
16478;SDS011;8350;52.316;10.530;2023-03-14T02:10:03;1.38;;;1.02;;
16478;SDS011;8350;52.316;10.530;2023-03-14T02:12:31;1.75;;;1.25;;
16478;SDS011;8350;52.316;10.530;2023-03-14T02:15:01;1.42;;;1.00;;
16478;SDS011;8350;52.316;10.530;2023-03-14T02:17:27;1.63;;;1.00;;
16478;SDS011;8350;52.316;10.530;2023-03-14T02:20:01;1.23;;;1.10;;
16478;SDS011;8350;52.316;10.530;2023-03-14T02:22:37;4.90;;;1.23;;
16478;SDS011;8350;52.316;10.530;2023-03-14T02:25:08;1.33;;;0.90;;
16478;SDS011;8350;52.316;10.530;2023-03-14T02:27:39;3.80;;;1.10;;
16478;SDS011;8350;52.316;10.530;2023-03-14T02:30:08;1.20;;;0.80;;
16478;SDS011;8350;52.316;10.530;2023-03-14T02:32:41;1.95;;;0.82;;
16478;SDS011;8350;52.316;10.530;2023-03-14T02:35:12;1.75;;;0.90;;
16478;SDS011;8350;52.316;10.530;2023-03-14T02:37:43;2.60;;;1.00;;
16478;SDS011;8350;52.316;10.530;2023-03-14T02:40:15;2.15;;;0.98;;
16478;SDS011;8350;52.316;10.530;2023-03-14T02:42:43;2.25;;;0.98;;
16478;SDS011;8350;52.316;10.530;2023-03-14T02:45:29;1.30;;;1.10;;
16478;SDS011;8350;52.316;10.530;2023-03-14T02:48:05;1.63;;;1.00;;
16478;SDS011;8350;52.316;10.530;2023-03-14T02:50:36;2.63;;;1.13;;
16478;SDS011;8350;52.316;10.530;2023-03-14T02:53:12;3.65;;;0.93;;
16478;SDS011;8350;52.316;10.530;2023-03-14T02:55:44;2.70;;;1.30;;
16478;SDS011;8350;52.316;10.530;2023-03-14T02:58:20;2.42;;;1.20;;
16478;SDS011;8350;52.316;10.530;2023-03-14T03:00:47;1.95;;;1.17;;
16478;SDS011;8350;52.316;10.530;2023-03-14T03:03:15;1.63;;;1.02;;
16478;SDS011;8350;52.316;10.530;2023-03-14T03:05:42;3.50;;;0.90;;
16478;SDS011;8350;52.316;10.530;2023-03-14T03:08:09;1.88;;;0.85;;
16478;SDS011;8350;52.316;10.530;2023-03-14T03:10:49;1.13;;;0.80;;
16478;SDS011;8350;52.316;10.530;2023-03-14T03:13:18;1.30;;;0.70;;
16478;SDS011;8350;52.316;10.530;2023-03-14T03:15:49;1.20;;;0.90;;
16478;SDS011;8350;52.316;10.530;2023-03-14T03:18:16;1.58;;;1.08;;
16478;SDS011;8350;52.316;10.530;2023-03-14T03:20:43;1.83;;;0.80;;
16478;SDS011;8350;52.316;10.530;2023-03-14T03:23:10;1.73;;;1.10;;
16478;SDS011;8350;52.316;10.530;2023-03-14T03:25:37;1.08;;;0.98;;
16478;SDS011;8350;52.316;10.530;2023-03-14T03:28:05;2.25;;;0.70;;
16478;SDS011;8350;52.316;10.530;2023-03-14T03:30:35;1.13;;;1.02;;
16478;SDS011;8350;52.316;10.530;2023-03-14T03:33:04;1.90;;;1.10;;
16478;SDS011;8350;52.316;10.530;2023-03-14T03:35:30;2.00;;;0.90;;
16478;SDS011;8350;52.316;10.530;2023-03-14T03:37:58;1.85;;;1.02;;
16478;SDS011;8350;52.316;10.530;2023-03-14T03:40:24;2.75;;;1.00;;
16478;SDS011;8350;52.316;10.530;2023-03-14T03:42:51;3.30;;;1.25;;
16478;SDS011;8350;52.316;10.530;2023-03-14T03:45:18;3.22;;;0.95;;
16478;SDS011;8350;52.316;10.530;2023-03-14T03:47:46;1.35;;;0.85;;
16478;SDS011;8350;52.316;10.530;2023-03-14T03:50:13;2.40;;;0.90;;
16478;SDS011;8350;52.316;10.530;2023-03-14T03:52:43;1.45;;;0.80;;
16478;SDS011;8350;52.316;10.530;2023-03-14T03:55:11;2.33;;;0.80;;
16478;SDS011;8350;52.316;10.530;2023-03-14T03:57:38;1.40;;;0.90;;
16478;SDS011;8350;52.316;10.530;2023-03-14T04:00:05;3.40;;;1.50;;
16478;SDS011;8350;52.316;10.530;2023-03-14T04:02:37;1.05;;;0.90;;
16478;SDS011;8350;52.316;10.530;2023-03-14T04:05:06;1.92;;;0.80;;
16478;SDS011;8350;52.316;10.530;2023-03-14T04:07:33;3.80;;;1.10;;
16478;SDS011;8350;52.316;10.530;2023-03-14T04:10:00;2.85;;;1.10;;
16478;SDS011;8350;52.316;10.530;2023-03-14T04:12:27;2.10;;;0.95;;
16478;SDS011;8350;52.316;10.530;2023-03-14T04:14:54;2.78;;;1.20;;
16478;SDS011;8350;52.316;10.530;2023-03-14T04:17:21;3.63;;;1.10;;
16478;SDS011;8350;52.316;10.530;2023-03-14T04:19:48;2.22;;;1.02;;
16478;SDS011;8350;52.316;10.530;2023-03-14T04:22:17;1.48;;;0.77;;
16478;SDS011;8350;52.316;10.530;2023-03-14T04:24:44;2.47;;;0.93;;
16478;SDS011;8350;52.316;10.530;2023-03-14T04:27:15;1.27;;;0.88;;
16478;SDS011;8350;52.316;10.530;2023-03-14T04:29:42;3.10;;;1.45;;
16478;SDS011;8350;52.316;10.530;2023-03-14T04:32:09;1.45;;;1.08;;
16478;SDS011;8350;52.316;10.530;2023-03-14T04:34:36;2.78;;;1.08;;
16478;SDS011;8350;52.316;10.530;2023-03-14T04:37:03;2.53;;;1.15;;
16478;SDS011;8350;52.316;10.530;2023-03-14T04:39:31;2.70;;;1.17;;
16478;SDS011;8350;52.316;10.530;2023-03-14T04:42:00;3.45;;;1.08;;
16478;SDS011;8350;52.316;10.530;2023-03-14T04:44:27;3.35;;;1.20;;
16478;SDS011;8350;52.316;10.530;2023-03-14T04:46:54;4.85;;;1.00;;
16478;SDS011;8350;52.316;10.530;2023-03-14T04:52:24;2.15;;;1.00;;
16478;SDS011;8350;52.316;10.530;2023-03-14T04:54:52;1.70;;;0.90;;
16478;SDS011;8350;52.316;10.530;2023-03-14T04:57:19;1.55;;;0.95;;
16478;SDS011;8350;52.316;10.530;2023-03-14T04:59:46;2.72;;;0.73;;
16478;SDS011;8350;52.316;10.530;2023-03-14T05:02:13;2.92;;;0.95;;
16478;SDS011;8350;52.316;10.530;2023-03-14T05:04:40;3.60;;;0.85;;
16478;SDS011;8350;52.316;10.530;2023-03-14T05:07:06;2.05;;;1.17;;
16478;SDS011;8350;52.316;10.530;2023-03-14T05:09:33;3.25;;;1.25;;
16478;SDS011;8350;52.316;10.530;2023-03-14T05:12:01;2.83;;;0.90;;
16478;SDS011;8350;52.316;10.530;2023-03-14T05:14:28;1.58;;;0.95;;
16478;SDS011;8350;52.316;10.530;2023-03-14T05:16:55;1.75;;;1.02;;
16478;SDS011;8350;52.316;10.530;2023-03-14T05:19:22;3.63;;;0.93;;
16478;SDS011;8350;52.316;10.530;2023-03-14T05:21:48;2.97;;;1.00;;
16478;SDS011;8350;52.316;10.530;2023-03-14T05:24:15;2.75;;;1.40;;
16478;SDS011;8350;52.316;10.530;2023-03-14T05:26:42;1.40;;;0.90;;
16478;SDS011;8350;52.316;10.530;2023-03-14T05:29:10;1.27;;;0.90;;
16478;SDS011;8350;52.316;10.530;2023-03-14T05:31:37;0.90;;;0.68;;
16478;SDS011;8350;52.316;10.530;2023-03-14T05:34:04;2.00;;;0.98;;
16478;SDS011;8350;52.316;10.530;2023-03-14T05:36:31;2.33;;;0.82;;
16478;SDS011;8350;52.316;10.530;2023-03-14T05:38:59;2.60;;;0.82;;
16478;SDS011;8350;52.316;10.530;2023-03-14T05:41:26;3.00;;;1.02;;
16478;SDS011;8350;52.316;10.530;2023-03-14T05:43:54;2.60;;;0.93;;
16478;SDS011;8350;52.316;10.530;2023-03-14T05:46:22;3.00;;;0.93;;
16478;SDS011;8350;52.316;10.530;2023-03-14T05:48:49;2.08;;;0.90;;
16478;SDS011;8350;52.316;10.530;2023-03-14T05:51:17;1.55;;;1.25;;
16478;SDS011;8350;52.316;10.530;2023-03-14T05:53:44;1.95;;;0.82;;
16478;SDS011;8350;52.316;10.530;2023-03-14T05:56:11;2.72;;;0.50;;
16478;SDS011;8350;52.316;10.530;2023-03-14T05:58:37;2.25;;;0.77;;
16478;SDS011;8350;52.316;10.530;2023-03-14T06:01:04;2.10;;;0.80;;
16478;SDS011;8350;52.316;10.530;2023-03-14T06:03:33;0.82;;;0.45;;
16478;SDS011;8350;52.316;10.530;2023-03-14T06:06:02;3.20;;;0.80;;
16478;SDS011;8350;52.316;10.530;2023-03-14T06:08:29;1.90;;;0.63;;
16478;SDS011;8350;52.316;10.530;2023-03-14T06:10:56;1.73;;;0.70;;
16478;SDS011;8350;52.316;10.530;2023-03-14T06:13:23;1.23;;;0.63;;
16478;SDS011;8350;52.316;10.530;2023-03-14T06:15:50;0.77;;;0.60;;
16478;SDS011;8350;52.316;10.530;2023-03-14T06:18:17;1.17;;;0.40;;
16478;SDS011;8350;52.316;10.530;2023-03-14T06:20:45;1.52;;;0.57;;
16478;SDS011;8350;52.316;10.530;2023-03-14T06:23:12;2.80;;;0.98;;
16478;SDS011;8350;52.316;10.530;2023-03-14T06:25:39;4.35;;;0.93;;
16478;SDS011;8350;52.316;10.530;2023-03-14T06:28:06;2.05;;;0.50;;
16478;SDS011;8350;52.316;10.530;2023-03-14T06:30:34;2.00;;;1.35;;
16478;SDS011;8350;52.316;10.530;2023-03-14T06:33:00;2.67;;;1.08;;
16478;SDS011;8350;52.316;10.530;2023-03-14T06:35:29;2.55;;;1.40;;
16478;SDS011;8350;52.316;10.530;2023-03-14T06:37:58;2.75;;;1.65;;
16478;SDS011;8350;52.316;10.530;2023-03-14T06:40:25;3.50;;;1.27;;
16478;SDS011;8350;52.316;10.530;2023-03-14T06:42:52;2.25;;;0.82;;
16478;SDS011;8350;52.316;10.530;2023-03-14T06:45:18;2.17;;;0.80;;
16478;SDS011;8350;52.316;10.530;2023-03-14T06:47:45;1.05;;;0.75;;
16478;SDS011;8350;52.316;10.530;2023-03-14T06:50:12;1.25;;;0.60;;
16478;SDS011;8350;52.316;10.530;2023-03-14T06:52:39;3.53;;;0.90;;
16478;SDS011;8350;52.316;10.530;2023-03-14T06:55:12;1.75;;;0.80;;
16478;SDS011;8350;52.316;10.530;2023-03-14T06:57:39;3.15;;;1.13;;
16478;SDS011;8350;52.316;10.530;2023-03-14T07:00:07;3.97;;;1.10;;
16478;SDS011;8350;52.316;10.530;2023-03-14T07:02:35;4.60;;;1.00;;
16478;SDS011;8350;52.316;10.530;2023-03-14T07:05:02;1.63;;;0.70;;
16478;SDS011;8350;52.316;10.530;2023-03-14T07:07:29;2.42;;;0.80;;
16478;SDS011;8350;52.316;10.530;2023-03-14T07:09:56;2.28;;;0.60;;
16478;SDS011;8350;52.316;10.530;2023-03-14T07:12:25;2.58;;;0.60;;
16478;SDS011;8350;52.316;10.530;2023-03-14T07:14:52;2.63;;;0.70;;
16478;SDS011;8350;52.316;10.530;2023-03-14T07:17:19;2.33;;;0.68;;
16478;SDS011;8350;52.316;10.530;2023-03-14T07:19:45;2.35;;;0.68;;
16478;SDS011;8350;52.316;10.530;2023-03-14T07:22:13;1.90;;;1.10;;
16478;SDS011;8350;52.316;10.530;2023-03-14T07:24:40;2.50;;;0.95;;
16478;SDS011;8350;52.316;10.530;2023-03-14T07:27:08;2.17;;;1.00;;
16478;SDS011;8350;52.316;10.530;2023-03-14T07:29:36;1.25;;;0.68;;
16478;SDS011;8350;52.316;10.530;2023-03-14T07:32:03;1.65;;;0.70;;
16478;SDS011;8350;52.316;10.530;2023-03-14T07:34:30;1.10;;;0.60;;
16478;SDS011;8350;52.316;10.530;2023-03-14T07:36:57;2.78;;;1.08;;
16478;SDS011;8350;52.316;10.530;2023-03-14T07:39:24;1.75;;;0.60;;
16478;SDS011;8350;52.316;10.530;2023-03-14T07:41:51;2.55;;;0.70;;
16478;SDS011;8350;52.316;10.530;2023-03-14T07:44:18;2.33;;;0.98;;
16478;SDS011;8350;52.316;10.530;2023-03-14T07:46:46;2.38;;;0.90;;
16478;SDS011;8350;52.316;10.530;2023-03-14T07:49:13;1.65;;;0.90;;
16478;SDS011;8350;52.316;10.530;2023-03-14T07:51:40;2.53;;;0.73;;
16478;SDS011;8350;52.316;10.530;2023-03-14T07:54:09;2.22;;;0.70;;
16478;SDS011;8350;52.316;10.530;2023-03-14T07:56:36;1.83;;;0.90;;
16478;SDS011;8350;52.316;10.530;2023-03-14T07:59:03;3.63;;;0.80;;
16478;SDS011;8350;52.316;10.530;2023-03-14T08:01:30;1.38;;;0.52;;
16478;SDS011;8350;52.316;10.530;2023-03-14T08:03:58;2.70;;;0.80;;
16478;SDS011;8350;52.316;10.530;2023-03-14T08:06:26;1.52;;;0.70;;
16478;SDS011;8350;52.316;10.530;2023-03-14T08:08:55;3.58;;;1.02;;
16478;SDS011;8350;52.316;10.530;2023-03-14T08:11:21;3.50;;;1.00;;
16478;SDS011;8350;52.316;10.530;2023-03-14T08:13:48;0.95;;;0.70;;
16478;SDS011;8350;52.316;10.530;2023-03-14T08:16:16;2.40;;;1.30;;
16478;SDS011;8350;52.316;10.530;2023-03-14T08:18:44;2.35;;;0.80;;
16478;SDS011;8350;52.316;10.530;2023-03-14T08:21:12;3.88;;;0.90;;
16478;SDS011;8350;52.316;10.530;2023-03-14T08:23:40;1.58;;;0.80;;
16478;SDS011;8350;52.316;10.530;2023-03-14T08:26:07;2.78;;;0.95;;
16478;SDS011;8350;52.316;10.530;2023-03-14T08:28:34;3.00;;;0.90;;
16478;SDS011;8350;52.316;10.530;2023-03-14T08:31:00;2.83;;;1.05;;
16478;SDS011;8350;52.316;10.530;2023-03-14T08:33:30;2.85;;;0.90;;
16478;SDS011;8350;52.316;10.530;2023-03-14T08:35:58;1.75;;;0.80;;
16478;SDS011;8350;52.316;10.530;2023-03-14T08:38:32;2.05;;;1.20;;
16478;SDS011;8350;52.316;10.530;2023-03-14T08:40:59;2.75;;;0.98;;
16478;SDS011;8350;52.316;10.530;2023-03-14T08:43:27;2.60;;;1.10;;
16478;SDS011;8350;52.316;10.530;2023-03-14T08:45:57;5.45;;;1.30;;
16478;SDS011;8350;52.316;10.530;2023-03-14T08:48:25;3.05;;;1.30;;
16478;SDS011;8350;52.316;10.530;2023-03-14T08:50:54;4.38;;;1.10;;
16478;SDS011;8350;52.316;10.530;2023-03-14T08:53:21;2.22;;;1.00;;
16478;SDS011;8350;52.316;10.530;2023-03-14T08:55:53;3.13;;;0.90;;
16478;SDS011;8350;52.316;10.530;2023-03-14T08:58:20;2.45;;;1.15;;
16478;SDS011;8350;52.316;10.530;2023-03-14T09:00:48;2.78;;;1.00;;
16478;SDS011;8350;52.316;10.530;2023-03-14T09:03:17;1.40;;;0.90;;
16478;SDS011;8350;52.316;10.530;2023-03-14T09:05:44;1.67;;;0.90;;
16478;SDS011;8350;52.316;10.530;2023-03-14T09:08:11;1.73;;;0.90;;
16478;SDS011;8350;52.316;10.530;2023-03-14T09:10:38;2.97;;;0.95;;
16478;SDS011;8350;52.316;10.530;2023-03-14T09:13:06;4.90;;;0.90;;
16478;SDS011;8350;52.316;10.530;2023-03-14T09:15:33;2.90;;;0.95;;
16478;SDS011;8350;52.316;10.530;2023-03-14T09:18:00;1.90;;;1.00;;
16478;SDS011;8350;52.316;10.530;2023-03-14T09:20:28;4.13;;;1.23;;
16478;SDS011;8350;52.316;10.530;2023-03-14T09:22:54;3.13;;;0.88;;
16478;SDS011;8350;52.316;10.530;2023-03-14T09:25:22;3.53;;;1.00;;
16478;SDS011;8350;52.316;10.530;2023-03-14T09:27:49;4.00;;;1.13;;
16478;SDS011;8350;52.316;10.530;2023-03-14T09:30:18;2.83;;;0.95;;
16478;SDS011;8350;52.316;10.530;2023-03-14T09:32:45;3.05;;;0.80;;
16478;SDS011;8350;52.316;10.530;2023-03-14T09:35:11;1.27;;;0.73;;
16478;SDS011;8350;52.316;10.530;2023-03-14T09:37:38;2.35;;;1.08;;
16478;SDS011;8350;52.316;10.530;2023-03-14T09:40:10;0.60;;;0.50;;
16478;SDS011;8350;52.316;10.530;2023-03-14T09:42:39;1.08;;;0.70;;
16478;SDS011;8350;52.316;10.530;2023-03-14T09:45:09;2.42;;;0.70;;
16478;SDS011;8350;52.316;10.530;2023-03-14T09:47:41;1.23;;;0.55;;
16478;SDS011;8350;52.316;10.530;2023-03-14T09:50:10;1.08;;;0.65;;
16478;SDS011;8350;52.316;10.530;2023-03-14T09:52:41;1.42;;;0.50;;
16478;SDS011;8350;52.316;10.530;2023-03-14T09:55:12;2.33;;;0.70;;
16478;SDS011;8350;52.316;10.530;2023-03-14T09:57:42;1.70;;;0.80;;
16478;SDS011;8350;52.316;10.530;2023-03-14T10:00:13;1.10;;;0.50;;
16478;SDS011;8350;52.316;10.530;2023-03-14T10:02:47;1.00;;;0.57;;
16478;SDS011;8350;52.316;10.530;2023-03-14T10:05:19;1.67;;;0.40;;
16478;SDS011;8350;52.316;10.530;2023-03-14T10:07:48;0.68;;;0.50;;
16478;SDS011;8350;52.316;10.530;2023-03-14T10:10:16;0.65;;;0.35;;
16478;SDS011;8350;52.316;10.530;2023-03-14T10:12:45;0.60;;;0.50;;
16478;SDS011;8350;52.316;10.530;2023-03-14T10:15:14;2.47;;;0.38;;
16478;SDS011;8350;52.316;10.530;2023-03-14T10:17:50;1.67;;;0.40;;
16478;SDS011;8350;52.316;10.530;2023-03-14T10:20:28;0.88;;;0.45;;
16478;SDS011;8350;52.316;10.530;2023-03-14T10:22:58;1.23;;;0.30;;
16478;SDS011;8350;52.316;10.530;2023-03-14T10:25:27;0.43;;;0.30;;
16478;SDS011;8350;52.316;10.530;2023-03-14T10:27:56;0.57;;;0.45;;
16478;SDS011;8350;52.316;10.530;2023-03-14T10:30:30;0.80;;;0.32;;
16478;SDS011;8350;52.316;10.530;2023-03-14T10:33:11;0.30;;;0.30;;
16478;SDS011;8350;52.316;10.530;2023-03-14T10:35:46;0.50;;;0.30;;
16478;SDS011;8350;52.316;10.530;2023-03-14T10:38:18;0.75;;;0.22;;
16478;SDS011;8350;52.316;10.530;2023-03-14T10:40:46;1.75;;;0.30;;
16478;SDS011;8350;52.316;10.530;2023-03-14T10:43:15;0.82;;;0.30;;
16478;SDS011;8350;52.316;10.530;2023-03-14T10:45:47;0.52;;;0.40;;
16478;SDS011;8350;52.316;10.530;2023-03-14T10:48:24;0.40;;;0.40;;
16478;SDS011;8350;52.316;10.530;2023-03-14T10:50:58;0.73;;;0.28;;
16478;SDS011;8350;52.316;10.530;2023-03-14T10:53:32;0.50;;;0.30;;
16478;SDS011;8350;52.316;10.530;2023-03-14T10:56:07;1.58;;;0.40;;
16478;SDS011;8350;52.316;10.530;2023-03-14T10:58:38;1.67;;;0.47;;
16478;SDS011;8350;52.316;10.530;2023-03-14T11:01:21;0.77;;;0.30;;
16478;SDS011;8350;52.316;10.530;2023-03-14T11:04:00;1.90;;;1.13;;
16478;SDS011;8350;52.316;10.530;2023-03-14T11:06:34;2.05;;;0.80;;
16478;SDS011;8350;52.316;10.530;2023-03-14T11:09:10;0.95;;;0.30;;
16478;SDS011;8350;52.316;10.530;2023-03-14T11:11:43;0.75;;;0.20;;
16478;SDS011;8350;52.316;10.530;2023-03-14T11:14:16;0.35;;;0.30;;
16478;SDS011;8350;52.316;10.530;2023-03-14T11:16:52;1.52;;;0.38;;
16478;SDS011;8350;52.316;10.530;2023-03-14T11:19:30;1.55;;;0.30;;
16478;SDS011;8350;52.316;10.530;2023-03-14T11:22:08;1.25;;;0.60;;
16478;SDS011;8350;52.316;10.530;2023-03-14T11:24:51;2.40;;;0.60;;
16478;SDS011;8350;52.316;10.530;2023-03-14T11:27:34;1.30;;;0.30;;
16478;SDS011;8350;52.316;10.530;2023-03-14T11:30:13;0.98;;;0.28;;
16478;SDS011;8350;52.316;10.530;2023-03-14T11:32:45;0.65;;;0.40;;
16478;SDS011;8350;52.316;10.530;2023-03-14T11:35:30;1.00;;;0.40;;
16478;SDS011;8350;52.316;10.530;2023-03-14T11:38:14;0.40;;;0.40;;
16478;SDS011;8350;52.316;10.530;2023-03-14T11:40:50;0.50;;;0.50;;
16478;SDS011;8350;52.316;10.530;2023-03-14T11:43:24;0.40;;;0.38;;
16478;SDS011;8350;52.316;10.530;2023-03-14T11:45:56;1.50;;;0.38;;
16478;SDS011;8350;52.316;10.530;2023-03-14T11:48:32;0.90;;;0.30;;
16478;SDS011;8350;52.316;10.530;2023-03-14T11:51:07;1.23;;;0.35;;
16478;SDS011;8350;52.316;10.530;2023-03-14T11:53:49;1.23;;;0.40;;
16478;SDS011;8350;52.316;10.530;2023-03-14T11:56:22;0.82;;;0.40;;
16478;SDS011;8350;52.316;10.530;2023-03-14T11:58:57;0.47;;;0.25;;
16478;SDS011;8350;52.316;10.530;2023-03-14T12:01:27;0.70;;;0.43;;
16478;SDS011;8350;52.316;10.530;2023-03-14T12:04:03;1.05;;;0.40;;
16478;SDS011;8350;52.316;10.530;2023-03-14T12:06:36;1.70;;;0.35;;
16478;SDS011;8350;52.316;10.530;2023-03-14T12:09:08;0.82;;;0.30;;
16478;SDS011;8350;52.316;10.530;2023-03-14T12:11:39;0.30;;;0.30;;
16478;SDS011;8350;52.316;10.530;2023-03-14T12:14:22;0.65;;;0.30;;
16478;SDS011;8350;52.316;10.530;2023-03-14T12:16:53;0.68;;;0.55;;
16478;SDS011;8350;52.316;10.530;2023-03-14T12:22:13;1.83;;;0.45;;
16478;SDS011;8350;52.316;10.530;2023-03-14T12:24:49;2.20;;;0.65;;
16478;SDS011;8350;52.316;10.530;2023-03-14T12:30:28;0.75;;;0.70;;
16478;SDS011;8350;52.316;10.530;2023-03-14T12:36:04;1.33;;;0.80;;
16478;SDS011;8350;52.316;10.530;2023-03-14T12:38:52;1.15;;;1.00;;
16478;SDS011;8350;52.316;10.530;2023-03-14T12:41:27;2.10;;;0.68;;
16478;SDS011;8350;52.316;10.530;2023-03-14T12:47:14;1.42;;;0.50;;
16478;SDS011;8350;52.316;10.530;2023-03-14T12:50:21;0.50;;;0.50;;
16478;SDS011;8350;52.316;10.530;2023-03-14T12:56:15;0.57;;;0.50;;
16478;SDS011;8350;52.316;10.530;2023-03-14T12:59:02;0.40;;;0.40;;
16478;SDS011;8350;52.316;10.530;2023-03-14T13:01:44;0.75;;;0.60;;
16478;SDS011;8350;52.316;10.530;2023-03-14T13:04:19;1.05;;;0.80;;
16478;SDS011;8350;52.316;10.530;2023-03-14T13:06:53;0.93;;;0.60;;
16478;SDS011;8350;52.316;10.530;2023-03-14T13:12:28;0.82;;;0.60;;
16478;SDS011;8350;52.316;10.530;2023-03-14T13:15:00;1.20;;;0.70;;
16478;SDS011;8350;52.316;10.530;2023-03-14T13:17:33;0.60;;;0.60;;
16478;SDS011;8350;52.316;10.530;2023-03-14T13:20:00;0.50;;;0.50;;
16478;SDS011;8350;52.316;10.530;2023-03-14T13:22:32;1.63;;;0.65;;
16478;SDS011;8350;52.316;10.530;2023-03-14T13:25:04;0.77;;;0.70;;
16478;SDS011;8350;52.316;10.530;2023-03-14T13:27:35;0.60;;;0.60;;
16478;SDS011;8350;52.316;10.530;2023-03-14T13:30:16;1.35;;;0.60;;
16478;SDS011;8350;52.316;10.530;2023-03-14T13:32:46;1.08;;;0.85;;
16478;SDS011;8350;52.316;10.530;2023-03-14T13:35:15;1.63;;;1.30;;
16478;SDS011;8350;52.316;10.530;2023-03-14T13:37:46;1.38;;;0.95;;
16478;SDS011;8350;52.316;10.530;2023-03-14T13:40:18;1.50;;;1.40;;
16478;SDS011;8350;52.316;10.530;2023-03-14T13:42:55;1.70;;;1.60;;
16478;SDS011;8350;52.316;10.530;2023-03-14T13:45:28;1.13;;;1.00;;
16478;SDS011;8350;52.316;10.530;2023-03-14T13:47:54;1.60;;;1.10;;
16478;SDS011;8350;52.316;10.530;2023-03-14T13:50:21;3.92;;;1.33;;
16478;SDS011;8350;52.316;10.530;2023-03-14T13:52:54;3.97;;;1.38;;
16478;SDS011;8350;52.316;10.530;2023-03-14T13:55:22;4.80;;;1.17;;
16478;SDS011;8350;52.316;10.530;2023-03-14T13:57:49;3.72;;;1.58;;
16478;SDS011;8350;52.316;10.530;2023-03-14T14:00:21;6.68;;;1.80;;
16478;SDS011;8350;52.316;10.530;2023-03-14T14:02:51;5.10;;;1.67;;
16478;SDS011;8350;52.316;10.530;2023-03-14T14:05:20;3.90;;;1.38;;
16478;SDS011;8350;52.316;10.530;2023-03-14T14:07:48;5.50;;;1.65;;
16478;SDS011;8350;52.316;10.530;2023-03-14T14:10:16;2.53;;;1.35;;
16478;SDS011;8350;52.316;10.530;2023-03-14T14:12:45;6.47;;;2.42;;
16478;SDS011;8350;52.316;10.530;2023-03-14T14:15:16;6.57;;;1.60;;
16478;SDS011;8350;52.316;10.530;2023-03-14T14:17:47;3.38;;;1.85;;
16478;SDS011;8350;52.316;10.530;2023-03-14T14:20:20;8.77;;;3.88;;
16478;SDS011;8350;52.316;10.530;2023-03-14T14:22:49;7.07;;;2.38;;
16478;SDS011;8350;52.316;10.530;2023-03-14T14:25:17;5.43;;;2.47;;
16478;SDS011;8350;52.316;10.530;2023-03-14T14:27:46;18.90;;;7.25;;
16478;SDS011;8350;52.316;10.530;2023-03-14T14:30:28;9.50;;;3.40;;
16478;SDS011;8350;52.316;10.530;2023-03-14T14:33:18;12.07;;;4.60;;
16478;SDS011;8350;52.316;10.530;2023-03-14T14:35:50;15.07;;;6.63;;
16478;SDS011;8350;52.316;10.530;2023-03-14T14:38:21;4.70;;;2.00;;
16478;SDS011;8350;52.316;10.530;2023-03-14T14:40:49;11.63;;;3.95;;
16478;SDS011;8350;52.316;10.530;2023-03-14T14:43:20;3.22;;;1.35;;
16478;SDS011;8350;52.316;10.530;2023-03-14T14:45:49;8.88;;;3.25;;
16478;SDS011;8350;52.316;10.530;2023-03-14T14:48:22;5.75;;;1.58;;
16478;SDS011;8350;52.316;10.530;2023-03-14T14:50:52;4.43;;;2.10;;
16478;SDS011;8350;52.316;10.530;2023-03-14T14:53:25;7.95;;;2.47;;
16478;SDS011;8350;52.316;10.530;2023-03-14T14:55:55;4.13;;;1.10;;
16478;SDS011;8350;52.316;10.530;2023-03-14T14:58:25;6.45;;;1.98;;
16478;SDS011;8350;52.316;10.530;2023-03-14T15:00:54;7.05;;;2.63;;
16478;SDS011;8350;52.316;10.530;2023-03-14T15:03:27;4.82;;;1.60;;
16478;SDS011;8350;52.316;10.530;2023-03-14T15:05:55;4.72;;;1.85;;
16478;SDS011;8350;52.316;10.530;2023-03-14T15:08:23;6.07;;;1.63;;
16478;SDS011;8350;52.316;10.530;2023-03-14T15:10:52;6.13;;;2.28;;
16478;SDS011;8350;52.316;10.530;2023-03-14T15:13:19;6.03;;;2.53;;
16478;SDS011;8350;52.316;10.530;2023-03-14T15:15:46;8.88;;;2.05;;
16478;SDS011;8350;52.316;10.530;2023-03-14T15:18:14;4.97;;;2.10;;
16478;SDS011;8350;52.316;10.530;2023-03-14T15:20:44;8.85;;;2.17;;
16478;SDS011;8350;52.316;10.530;2023-03-14T15:23:12;10.18;;;2.55;;
16478;SDS011;8350;52.316;10.530;2023-03-14T15:25:40;11.05;;;2.75;;